Quathiaski Cove, Canada
Current Conditions -  °F | °C
As of 9:00 AM on Friday 24 Oct 2014 (Local Time) from CYBL Reporting Station
Broken Clouds Broken Clouds  
Wind Chill: 45°   Ceiling: 2500
Heat Index: 45°   Visibility: 15mi
Dew Point: 43°   Wind: 0mph
Humidity: 93%   Direction: NA
Pressure: 30.04"   Gusts: NA
Location:  50.05°N, 125.18°W
Report Text: CYBL 241600Z 00000KT 15SM FEW005 SCT015 BKN025 BKN090 07/06 A3004 RMK SF1SC3SC2AC1 SLP175
Loading
Personal Weather Stations






























Interactive Weather Map
Tropical Storm Tracking
New forecast layout! Learn more

10-Day Weather Forecast

Advertisements
Track Severe Weather on mobile